createdAt,value
2019-01-28T00:00:01.112Z,25.74
2019-01-28T00:01:00.909Z,25.67
2019-01-28T00:02:01.098Z,25.71
2019-01-28T00:03:01.147Z,25.71
2019-01-28T00:04:01.115Z,25.65
2019-01-28T00:05:01.082Z,25.67
2019-01-28T00:06:01.101Z,25.65
2019-01-28T00:07:00.833Z,25.69
2019-01-28T00:08:01.053Z,25.80
2019-01-28T00:09:00.854Z,25.74
2019-01-28T00:10:00.843Z,25.75
2019-01-28T00:11:01.036Z,25.68
2019-01-28T00:12:01.046Z,25.80
2019-01-28T00:13:00.813Z,25.65
2019-01-28T00:14:00.783Z,25.74
2019-01-28T00:15:01.038Z,25.68
2019-01-28T00:16:00.768Z,25.65
2019-01-28T00:17:00.800Z,25.68
2019-01-28T00:18:00.744Z,25.75
2019-01-28T00:19:00.996Z,25.69
2019-01-28T00:20:00.788Z,25.80
2019-01-28T00:21:01.012Z,25.72
2019-01-28T00:22:00.728Z,25.77
2019-01-28T00:23:00.996Z,25.72
2019-01-28T00:24:00.990Z,25.69
2019-01-28T00:25:00.998Z,25.74
2019-01-28T00:26:00.966Z,25.75
2019-01-28T00:27:01.043Z,25.69
2019-01-28T00:28:01.074Z,25.67
2019-01-28T00:29:01.099Z,25.69
2019-01-28T00:30:01.089Z,25.79
2019-01-28T00:31:00.703Z,25.65
2019-01-28T00:32:00.709Z,25.74
2019-01-28T00:33:00.697Z,25.71
2019-01-28T00:34:01.025Z,25.65
2019-01-28T00:35:01.031Z,25.71
2019-01-28T00:36:00.628Z,25.71
2019-01-28T00:37:00.652Z,25.72
2019-01-28T00:38:00.880Z,25.72
2019-01-28T00:39:00.631Z,25.72
2019-01-28T00:40:00.604Z,25.71
2019-01-28T00:41:00.593Z,25.75
2019-01-28T00:42:00.599Z,25.68
2019-01-28T00:43:00.858Z,25.68
2019-01-28T00:44:00.575Z,25.68
2019-01-28T00:45:00.833Z,25.68
2019-01-28T00:46:00.596Z,25.74
2019-01-28T00:47:00.832Z,25.79
2019-01-28T00:48:00.542Z,25.68
2019-01-28T00:49:00.789Z,25.72
2019-01-28T00:50:00.535Z,25.69
2019-01-28T00:51:00.768Z,25.67
2019-01-28T00:52:00.815Z,25.64
2019-01-28T00:53:00.777Z,25.74
2019-01-28T00:54:00.538Z,25.71
2019-01-28T00:55:00.736Z,25.69
2019-01-28T00:56:00.735Z,25.68
2019-01-28T00:57:00.727Z,25.69
2019-01-28T00:58:00.778Z,25.65
2019-01-28T00:59:00.767Z,25.69
2019-01-28T01:00:00.460Z,25.77
2019-01-28T01:01:00.742Z,25.69
2019-01-28T01:02:00.493Z,25.65
2019-01-28T01:03:00.703Z,25.69
2019-01-28T01:04:00.473Z,25.67
2019-01-28T01:05:00.695Z,25.69
2019-01-28T01:06:00.461Z,25.65
2019-01-28T01:07:00.417Z,25.69
2019-01-28T01:08:00.683Z,25.77
2019-01-28T01:09:00.642Z,25.75
2019-01-28T01:10:00.420Z,25.77
2019-01-28T01:11:00.652Z,25.74
2019-01-28T01:12:00.671Z,25.69
2019-01-28T01:13:00.409Z,25.79
2019-01-28T01:14:00.370Z,25.74
2019-01-28T01:15:00.601Z,25.79
2019-01-28T01:16:00.590Z,25.83
2019-01-28T01:17:00.352Z,25.80
2019-01-28T01:18:00.603Z,25.71
2019-01-28T01:19:00.626Z,25.71
2019-01-28T01:20:00.328Z,25.80
2019-01-28T01:21:00.360Z,25.79
2019-01-28T01:22:00.323Z,25.83
2019-01-28T01:23:00.349Z,25.77
2019-01-28T01:24:00.295Z,25.80
2019-01-28T01:25:00.371Z,25.77
2019-01-28T01:26:00.575Z,25.75
2019-01-28T01:27:00.285Z,25.72
2019-01-28T01:28:00.507Z,25.82
2019-01-28T01:29:00.313Z,25.86
2019-01-28T01:30:00.547Z,25.83
2019-01-28T01:31:00.298Z,25.86
2019-01-28T01:32:00.511Z,25.90
2019-01-28T01:33:00.526Z,25.90
2019-01-28T01:34:00.475Z,25.83
2019-01-28T01:35:00.496Z,25.86
2019-01-28T01:36:00.258Z,25.84
2019-01-28T01:37:00.244Z,25.84
2019-01-28T01:38:00.469Z,25.86
2019-01-28T01:39:00.455Z,25.89
2019-01-28T01:40:00.209Z,25.87
2019-01-28T01:41:00.445Z,25.91
2019-01-28T01:42:00.175Z,25.80
2019-01-28T01:43:00.465Z,25.87
2019-01-28T01:44:00.400Z,25.86
2019-01-28T01:45:00.248Z,25.86
2019-01-28T01:46:00.419Z,25.87
2019-01-28T01:47:00.406Z,25.84
2019-01-28T01:48:00.175Z,25.84
2019-01-28T01:49:00.395Z,25.87
2019-01-28T01:50:00.182Z,25.91
2019-01-28T01:51:00.119Z,25.94
2019-01-28T01:52:00.120Z,25.90
2019-01-28T01:53:00.132Z,25.89
2019-01-28T01:54:00.320Z,25.98
2019-01-28T01:55:00.123Z,25.93
2019-01-28T01:56:00.093Z,25.97
2019-01-28T01:57:00.370Z,26.01
2019-01-28T01:58:00.097Z,26.06
2019-01-28T01:59:00.343Z,25.99
2019-01-28T02:00:00.333Z,26.04
2019-01-28T02:01:00.050Z,26.05
2019-01-28T02:02:00.329Z,26.04
2019-01-28T02:03:00.066Z,26.09
2019-01-28T02:04:00.287Z,26.09
2019-01-28T02:05:00.283Z,26.05
2019-01-28T02:06:00.256Z,26.06
2019-01-28T02:07:00.050Z,26.15
2019-01-28T02:08:00.258Z,26.12
2019-01-28T02:09:00.280Z,26.15
2019-01-28T02:10:00.273Z,26.06
2019-01-28T02:11:00.227Z,26.09
2019-01-28T02:11:59.964Z,26.11
2019-01-28T02:12:59.972Z,26.11
2019-01-28T02:14:00.213Z,26.09
2019-01-28T02:15:00.248Z,26.04
2019-01-28T02:15:59.978Z,26.12
2019-01-28T02:17:00.205Z,26.11
2019-01-28T02:18:00.229Z,26.20
2019-01-28T02:18:59.925Z,26.09
2019-01-28T02:20:00.269Z,26.02
2019-01-28T02:21:00.190Z,26.04
2019-01-28T02:22:00.150Z,26.02
2019-01-28T02:23:00.150Z,26.12
2019-01-28T02:24:00.163Z,26.12
2019-01-28T02:25:00.250Z,26.05
2019-01-28T02:26:00.166Z,26.09
2019-01-28T02:26:59.902Z,26.11
2019-01-28T02:27:59.910Z,26.05
2019-01-28T02:29:00.096Z,26.05
2019-01-28T02:30:00.318Z,26.11
2019-01-28T02:30:59.838Z,26.15
2019-01-28T02:31:59.839Z,26.12
2019-01-28T02:32:59.857Z,26.11
2019-01-28T02:33:59.834Z,26.11
2019-01-28T02:34:59.862Z,26.20
2019-01-28T02:35:59.818Z,26.21
2019-01-28T02:36:59.811Z,26.18
2019-01-28T02:37:59.835Z,26.15
2019-01-28T02:39:00.070Z,26.15
2019-01-28T02:40:00.042Z,26.21
2019-01-28T02:41:00.020Z,26.15
2019-01-28T02:42:00.006Z,26.17
2019-01-28T02:43:00.020Z,26.20
2019-01-28T02:43:59.743Z,26.17
2019-01-28T02:44:59.747Z,26.17
2019-01-28T02:45:59.783Z,26.17
2019-01-28T02:46:59.977Z,26.15
2019-01-28T02:47:59.724Z,26.18
2019-01-28T02:49:00.068Z,26.18
2019-01-28T02:50:00.239Z,26.17
2019-01-28T02:51:00.085Z,26.12
2019-01-28T02:51:59.734Z,26.09
2019-01-28T02:53:00.118Z,26.11
2019-01-28T02:54:00.061Z,26.11
2019-01-28T02:55:00.142Z,26.11
2019-01-28T02:55:59.987Z,26.11
2019-01-28T02:56:59.682Z,26.11
2019-01-28T02:57:59.942Z,26.21
2019-01-28T02:58:59.964Z,26.09
2019-01-28T02:59:59.959Z,26.11
2019-01-28T03:00:59.909Z,26.11
2019-01-28T03:01:59.671Z,26.11
2019-01-28T03:02:59.916Z,26.18
2019-01-28T03:03:59.625Z,26.20
2019-01-28T03:04:59.878Z,26.17
2019-01-28T03:05:59.860Z,26.18
2019-01-28T03:06:59.899Z,26.15
2019-01-28T03:07:59.631Z,26.15
2019-01-28T03:08:59.843Z,26.21
2019-01-28T03:09:59.825Z,26.12
2019-01-28T03:10:59.836Z,26.17
2019-01-28T03:11:59.841Z,26.15
2019-01-28T03:12:59.796Z,26.22
2019-01-28T03:13:59.813Z,26.21
2019-01-28T03:14:59.823Z,26.18
2019-01-28T03:15:59.545Z,26.21
2019-01-28T03:16:59.828Z,26.21
2019-01-28T03:17:59.534Z,26.22
2019-01-28T03:18:59.565Z,26.22
2019-01-28T03:19:59.553Z,26.21
2019-01-28T03:20:59.499Z,26.22
2019-01-28T03:22:00.229Z,26.22
2019-01-28T03:22:59.501Z,26.24
2019-01-28T03:23:59.485Z,26.20
2019-01-28T03:24:59.751Z,26.24
2019-01-28T03:25:59.735Z,26.25
2019-01-28T03:26:59.496Z,26.22
2019-01-28T03:27:59.754Z,26.20
2019-01-28T03:28:59.710Z,26.18
2019-01-28T03:29:59.716Z,26.21
2019-01-28T03:30:59.692Z,26.21
2019-01-28T03:31:59.439Z,26.15
2019-01-28T03:32:59.452Z,26.22
2019-01-28T03:33:59.446Z,26.18
2019-01-28T03:34:59.678Z,26.20
2019-01-28T03:35:59.675Z,26.25
2019-01-28T03:36:59.665Z,26.28
2019-01-28T03:37:59.775Z,26.27
2019-01-28T03:38:59.379Z,26.28
2019-01-28T03:39:59.789Z,26.29
2019-01-28T03:40:59.395Z,26.25
2019-01-28T03:41:59.365Z,26.17
2019-01-28T03:42:59.378Z,26.27
2019-01-28T03:43:59.378Z,26.21
2019-01-28T03:44:59.725Z,26.20
2019-01-28T03:45:59.357Z,26.24
2019-01-28T03:46:59.600Z,26.25
2019-01-28T03:47:59.618Z,26.27
2019-01-28T03:48:59.605Z,26.24
2019-01-28T03:49:59.309Z,26.28
2019-01-28T03:50:59.549Z,26.29
2019-01-28T03:51:59.567Z,26.27
2019-01-28T03:52:59.572Z,26.25
2019-01-28T03:53:59.515Z,26.25
2019-01-28T03:54:59.306Z,26.27
2019-01-28T03:55:59.524Z,26.24
2019-01-28T03:56:59.296Z,26.31
2019-01-28T03:57:59.546Z,26.31
2019-01-28T03:58:59.538Z,26.22
2019-01-28T03:59:59.234Z,26.31
2019-01-28T04:00:59.625Z,26.32
2019-01-28T04:01:59.272Z,26.37
2019-01-28T04:02:59.264Z,26.25
2019-01-28T04:03:59.221Z,26.28
2019-01-28T04:04:59.614Z,26.25
2019-01-28T04:05:59.203Z,26.36
2019-01-28T04:06:59.565Z,26.37
2019-01-28T04:07:59.539Z,26.28
2019-01-28T04:08:59.589Z,26.28
2019-01-28T04:09:59.589Z,26.32
2019-01-28T04:10:59.465Z,26.27
2019-01-28T04:11:59.162Z,26.36
2019-01-28T04:12:59.145Z,26.32
2019-01-28T04:13:59.141Z,26.32
2019-01-28T04:14:59.407Z,26.35
2019-01-28T04:15:59.405Z,26.32
2019-01-28T04:16:59.427Z,26.25
2019-01-28T04:17:59.137Z,26.31
2019-01-28T04:18:59.101Z,26.32
2019-01-28T04:19:59.116Z,26.22
2019-01-28T04:20:59.090Z,26.37
2019-01-28T04:21:59.084Z,26.28
2019-01-28T04:22:59.356Z,26.32
2019-01-28T04:23:59.106Z,26.31
2019-01-28T04:24:59.357Z,26.28
2019-01-28T04:25:59.362Z,26.22
2019-01-28T04:26:59.057Z,26.42
2019-01-28T04:27:59.085Z,26.21
2019-01-28T04:28:59.289Z,26.39
2019-01-28T04:29:59.302Z,26.36
2019-01-28T04:30:59.293Z,26.32
2019-01-28T04:31:59.021Z,26.37
2019-01-28T04:32:59.318Z,26.36
2019-01-28T04:33:59.265Z,26.24
2019-01-28T04:34:58.996Z,26.35
2019-01-28T04:35:59.023Z,26.24
2019-01-28T04:36:59.019Z,26.24
2019-01-28T04:37:59.208Z,26.22
2019-01-28T04:38:59.008Z,26.29
2019-01-28T04:39:59.239Z,26.32
2019-01-28T04:40:58.985Z,26.31
2019-01-28T04:42:58.950Z,26.25
2019-01-28T04:43:59.219Z,26.25
2019-01-28T04:44:59.209Z,26.31
2019-01-28T04:45:58.949Z,26.27
2019-01-28T04:46:58.908Z,26.27
2019-01-28T04:47:58.901Z,26.21
2019-01-28T04:48:59.147Z,26.29
2019-01-28T04:49:58.891Z,26.28
2019-01-28T04:51:59.256Z,26.22
2019-01-28T04:52:58.882Z,26.22
2019-01-28T04:54:00.117Z,26.20
2019-01-28T04:54:58.862Z,26.22
2019-01-28T04:55:59.202Z,26.21
2019-01-28T04:56:58.847Z,26.22
2019-01-28T04:57:59.132Z,26.15
2019-01-28T04:58:59.117Z,26.21
2019-01-28T04:59:59.089Z,26.21
2019-01-28T05:01:58.849Z,26.18
2019-01-28T05:02:59.086Z,26.15
2019-01-28T05:03:59.072Z,26.17
2019-01-28T05:04:59.075Z,26.22
2019-01-28T05:05:58.787Z,26.21
2019-01-28T05:06:59.030Z,26.17
2019-01-28T05:07:58.773Z,26.24
2019-01-28T05:08:59.030Z,26.22
2019-01-28T05:09:58.797Z,26.27
2019-01-28T05:10:58.785Z,26.20
2019-01-28T05:11:59.023Z,26.22
2019-01-28T05:12:58.772Z,26.17
2019-01-28T05:13:59.010Z,26.21
2019-01-28T05:14:58.973Z,26.20
2019-01-28T05:15:58.944Z,26.21
2019-01-28T05:16:59.019Z,26.17
2019-01-28T05:17:59.686Z,26.15
2019-01-28T05:18:59.037Z,26.18
2019-01-28T05:19:58.733Z,26.21
2019-01-28T05:20:58.755Z,26.11
2019-01-28T05:21:58.940Z,26.17
2019-01-28T05:23:20.584Z,26.18
2019-01-28T05:23:59.360Z,26.17
2019-01-28T05:25:01.404Z,26.09
2019-01-28T05:25:58.790Z,26.09
2019-01-28T05:26:58.622Z,26.12
2019-01-28T05:28:01.736Z,26.02
2019-01-28T05:28:59.002Z,26.05
2019-01-28T05:29:59.590Z,26.04
2019-01-28T05:31:01.404Z,26.05
2019-01-28T05:31:59.036Z,26.02
2019-01-28T05:32:58.950Z,26.01
2019-01-28T05:33:58.650Z,26.01
2019-01-28T05:34:58.916Z,25.94
2019-01-28T05:35:58.680Z,25.93
2019-01-28T05:36:58.826Z,26.04
2019-01-28T05:38:01.286Z,25.97
2019-01-28T05:38:58.612Z,25.99
2019-01-28T05:39:58.588Z,25.97
2019-01-28T05:40:58.542Z,25.94
2019-01-28T05:41:58.533Z,25.94
2019-01-28T05:42:58.527Z,25.91
2019-01-28T05:43:58.785Z,25.91
2019-01-28T05:44:58.557Z,25.94
2019-01-28T05:45:58.555Z,25.90
2019-01-28T05:46:58.506Z,25.94
2019-01-28T05:47:58.536Z,25.86
2019-01-28T05:48:58.727Z,25.90
2019-01-28T05:49:58.481Z,25.87
2019-01-28T05:52:01.321Z,25.83
2019-01-28T05:52:58.507Z,25.87
2019-01-28T05:53:58.485Z,25.90
2019-01-28T05:54:58.713Z,25.87
2019-01-28T05:55:58.744Z,25.91
2019-01-28T05:56:58.704Z,25.87
2019-01-28T05:57:58.425Z,25.86
2019-01-28T05:58:58.410Z,25.86
2019-01-28T05:59:58.454Z,25.90
2019-01-28T06:00:58.443Z,25.90
2019-01-28T06:01:58.425Z,25.77
2019-01-28T06:02:58.407Z,25.77
2019-01-28T06:03:58.379Z,25.83
2019-01-28T06:04:58.623Z,25.80
2019-01-28T06:05:58.413Z,25.83
2019-01-28T06:06:58.639Z,25.86
2019-01-28T06:07:58.632Z,25.80
2019-01-28T06:08:58.356Z,25.87
2019-01-28T06:09:58.615Z,25.79
2019-01-28T06:10:58.622Z,25.84
2019-01-28T06:11:58.373Z,25.86
2019-01-28T06:12:58.629Z,25.75
2019-01-28T06:13:58.591Z,25.75
2019-01-28T06:14:58.566Z,25.75
2019-01-28T06:15:58.319Z,25.79
2019-01-28T06:16:58.297Z,25.74
2019-01-28T06:17:58.597Z,25.80
2019-01-28T06:18:58.287Z,25.77
2019-01-28T06:19:58.281Z,25.91
2019-01-28T06:20:58.506Z,25.72
2019-01-28T06:21:58.536Z,25.80
2019-01-28T06:22:58.279Z,25.84
2019-01-28T06:23:58.253Z,25.77
2019-01-28T06:24:58.281Z,25.79
2019-01-28T06:25:58.534Z,25.80
2019-01-28T06:26:58.913Z,25.74
2019-01-28T06:27:58.226Z,25.79
2019-01-28T06:28:59.095Z,25.80
2019-01-28T06:29:58.215Z,25.77
2019-01-28T06:30:58.192Z,25.82
2019-01-28T06:31:58.228Z,25.74
2019-01-28T06:32:58.188Z,25.75
2019-01-28T06:33:58.212Z,25.83
2019-01-28T06:34:58.470Z,25.83
2019-01-28T06:35:58.189Z,25.80
2019-01-28T06:36:58.206Z,25.75
2019-01-28T06:37:58.153Z,25.69
2019-01-28T06:38:58.447Z,25.68
2019-01-28T06:39:58.445Z,25.69
2019-01-28T06:40:58.131Z,25.69
2019-01-28T06:41:58.366Z,25.64
2019-01-28T06:42:58.354Z,25.64
2019-01-28T06:43:58.157Z,25.68
2019-01-28T06:44:58.113Z,25.65
2019-01-28T06:45:58.404Z,25.65
2019-01-28T06:46:58.349Z,25.69
2019-01-28T06:47:58.091Z,25.68
2019-01-28T06:48:58.347Z,25.68
2019-01-28T06:49:58.334Z,25.71
2019-01-28T06:50:58.316Z,25.80
2019-01-28T06:51:58.057Z,25.77
2019-01-28T06:52:58.083Z,25.83
2019-01-28T06:53:58.291Z,25.75
2019-01-28T06:54:58.037Z,25.79
2019-01-28T06:55:58.327Z,25.79
2019-01-28T06:56:58.289Z,25.87
2019-01-28T06:57:58.044Z,25.89
2019-01-28T06:58:58.012Z,25.84
2019-01-28T06:59:57.992Z,25.87
2019-01-28T07:00:58.230Z,25.86
2019-01-28T07:01:58.261Z,25.91
2019-01-28T07:02:58.253Z,25.89
2019-01-28T07:03:58.261Z,25.86
2019-01-28T07:04:58.221Z,25.86
2019-01-28T07:05:58.225Z,25.87
2019-01-28T07:06:57.979Z,25.84
2019-01-28T07:07:58.210Z,25.84
2019-01-28T07:08:58.240Z,25.89
2019-01-28T07:09:57.971Z,25.84
2019-01-28T07:10:58.153Z,25.89
2019-01-28T07:11:57.909Z,25.89
2019-01-28T07:12:57.941Z,25.91
2019-01-28T07:13:58.167Z,25.94
2019-01-28T07:14:57.919Z,25.94
2019-01-28T07:15:57.876Z,25.94
2019-01-28T07:16:58.154Z,25.91
2019-01-28T07:17:57.863Z,26.01
2019-01-28T07:18:58.086Z,25.90
2019-01-28T07:19:58.084Z,25.93
2019-01-28T07:20:57.875Z,25.93
2019-01-28T07:21:58.100Z,25.93
2019-01-28T07:22:58.062Z,25.94
2019-01-28T07:23:57.864Z,25.94
2019-01-28T07:24:57.817Z,25.94
2019-01-28T07:25:57.853Z,25.89
2019-01-28T07:26:58.183Z,25.86
2019-01-28T07:27:58.114Z,25.83
2019-01-28T07:28:57.800Z,25.91
2019-01-28T07:29:57.810Z,25.87
2019-01-28T07:30:57.777Z,25.91
2019-01-28T07:31:58.064Z,25.93
2019-01-28T07:32:57.996Z,25.91
2019-01-28T07:33:57.799Z,25.94
2019-01-28T07:34:58.026Z,25.93
2019-01-28T07:36:57.757Z,26.01
2019-01-28T07:37:58.556Z,25.97
2019-01-28T07:38:57.721Z,25.97
2019-01-28T07:39:58.018Z,25.89
2019-01-28T07:40:57.704Z,25.91
2019-01-28T07:41:57.946Z,25.94
2019-01-28T07:42:57.694Z,25.97
2019-01-28T07:43:57.704Z,25.98
2019-01-28T07:44:57.937Z,25.94
2019-01-28T07:45:57.905Z,25.98
2019-01-28T07:46:57.955Z,25.94
2019-01-28T07:48:02.795Z,25.97
2019-01-28T07:48:57.945Z,25.98
2019-01-28T07:49:57.880Z,26.01
2019-01-28T07:50:57.663Z,26.02
2019-01-28T07:51:57.905Z,25.98
2019-01-28T07:52:57.845Z,25.97
2019-01-28T07:53:57.605Z,26.02
2019-01-28T07:54:57.831Z,25.97
2019-01-28T07:55:57.878Z,25.94
2019-01-28T07:56:57.854Z,26.01
2019-01-28T07:58:57.601Z,26.01
2019-01-28T07:59:57.607Z,25.97
2019-01-28T08:00:57.590Z,26.01
2019-01-28T08:01:57.828Z,25.98
2019-01-28T08:02:57.802Z,25.97
2019-01-28T08:03:57.839Z,25.94
2019-01-28T08:04:57.534Z,25.99
2019-01-28T08:05:57.765Z,25.97
2019-01-28T08:06:59.452Z,26.02
2019-01-28T08:07:57.792Z,26.02
2019-01-28T08:08:57.809Z,25.94
2019-01-28T08:09:57.741Z,25.97
2019-01-28T08:10:57.763Z,25.93
2019-01-28T08:11:57.767Z,25.99
2019-01-28T08:12:57.497Z,25.97
2019-01-28T08:13:57.707Z,25.98
2019-01-28T08:14:57.716Z,26.04
2019-01-28T08:15:57.690Z,26.02
2019-01-28T08:16:57.721Z,26.05
2019-01-28T08:17:57.462Z,26.06
2019-01-28T08:18:57.448Z,26.04
2019-01-28T08:19:57.433Z,26.06
2019-01-28T08:20:57.688Z,26.08
2019-01-28T08:21:57.446Z,26.08
2019-01-28T08:22:57.406Z,26.12
2019-01-28T08:23:57.395Z,26.05
2019-01-28T08:24:57.434Z,26.02
2019-01-28T08:25:57.415Z,26.04
2019-01-28T08:26:57.388Z,26.08
2019-01-28T08:27:57.673Z,26.05
2019-01-28T08:28:57.393Z,26.09
2019-01-28T08:29:57.389Z,26.02
2019-01-28T08:30:57.346Z,26.04
2019-01-28T08:31:57.573Z,25.99
2019-01-28T08:32:57.596Z,25.97
2019-01-28T08:33:57.587Z,26.04
2019-01-28T08:34:57.619Z,25.99
2019-01-28T08:35:57.320Z,26.02
2019-01-28T08:36:57.572Z,25.99
2019-01-28T08:37:57.562Z,26.06
2019-01-28T08:38:57.287Z,26.08
2019-01-28T08:39:57.327Z,26.05
2019-01-28T08:40:57.309Z,26.05
2019-01-28T08:41:57.302Z,26.11
2019-01-28T08:42:57.541Z,26.17
2019-01-28T08:43:57.527Z,26.08
2019-01-28T08:45:57.264Z,26.11
2019-01-28T08:46:57.513Z,26.17
2019-01-28T08:47:57.607Z,26.11
2019-01-28T08:48:57.592Z,26.20
2019-01-28T08:49:57.266Z,26.17
2019-01-28T08:50:57.622Z,26.11
2019-01-28T08:51:57.200Z,26.11
2019-01-28T08:52:57.543Z,26.18
2019-01-28T08:53:57.193Z,26.17
2019-01-28T08:54:57.538Z,26.18
2019-01-28T08:55:57.530Z,26.15
2019-01-28T08:56:57.168Z,26.17
2019-01-28T08:57:57.193Z,26.15
2019-01-28T08:58:57.408Z,26.24
2019-01-28T08:59:57.442Z,26.17
2019-01-28T09:00:57.158Z,26.17
2019-01-28T09:01:57.424Z,26.21
2019-01-28T09:02:57.428Z,26.18
2019-01-28T09:03:57.154Z,26.17
2019-01-28T09:04:57.368Z,26.18
2019-01-28T09:05:57.103Z,26.18
2019-01-28T09:06:57.090Z,26.11
2019-01-28T09:07:57.354Z,26.21
2019-01-28T09:08:57.328Z,26.18
2019-01-28T09:09:57.359Z,26.18
2019-01-28T09:10:57.330Z,26.17
2019-01-28T09:11:57.090Z,26.17
2019-01-28T09:12:57.042Z,26.15
2019-01-28T09:13:57.301Z,26.21
2019-01-28T09:14:57.271Z,26.21
2019-01-28T09:15:57.299Z,26.15
2019-01-28T09:16:57.289Z,26.21
2019-01-28T09:17:57.392Z,26.24
2019-01-28T09:18:57.033Z,26.17
2019-01-28T09:19:58.960Z,26.22
2019-01-28T09:20:57.380Z,26.21
2019-01-28T09:21:57.393Z,26.20
2019-01-28T09:22:57.009Z,26.17
2019-01-28T09:23:56.973Z,26.18
2019-01-28T09:24:56.988Z,26.27
2019-01-28T09:25:56.979Z,26.24
2019-01-28T09:26:57.198Z,26.12
2019-01-28T09:27:57.194Z,26.21
2019-01-28T09:28:56.946Z,26.21
2019-01-28T09:29:56.926Z,26.22
2019-01-28T09:30:56.955Z,26.25
2019-01-28T09:31:56.920Z,26.22
2019-01-28T09:32:57.143Z,26.21
2019-01-28T09:33:56.929Z,26.21
2019-01-28T09:34:57.195Z,26.27
2019-01-28T09:35:57.179Z,26.18
2019-01-28T09:36:57.245Z,26.20
2019-01-28T09:37:57.252Z,26.22
2019-01-28T09:38:57.248Z,26.17
2019-01-28T09:39:57.272Z,26.21
2019-01-28T09:40:57.200Z,26.21
2019-01-28T09:41:56.870Z,26.21
2019-01-28T09:42:57.183Z,26.21
2019-01-28T09:43:56.868Z,26.24
2019-01-28T09:44:57.238Z,26.24
2019-01-28T09:45:57.071Z,26.18
2019-01-28T09:46:56.811Z,26.20
2019-01-28T09:47:56.833Z,26.20
2019-01-28T09:48:56.808Z,26.21
2019-01-28T09:49:57.044Z,26.18
2019-01-28T09:50:56.774Z,26.21
2019-01-28T09:51:56.776Z,26.15
2019-01-28T09:52:56.991Z,26.09
2019-01-28T09:53:57.024Z,26.12
2019-01-28T09:54:57.012Z,26.09
2019-01-28T09:55:56.790Z,26.05
2019-01-28T09:56:57.002Z,26.12
2019-01-28T09:57:56.999Z,26.05
2019-01-28T09:58:56.750Z,26.06
2019-01-28T09:59:56.974Z,26.15
2019-01-28T10:00:56.738Z,26.02
2019-01-28T10:01:56.949Z,26.08
2019-01-28T10:02:56.997Z,26.06
2019-01-28T10:03:56.733Z,26.04
2019-01-28T10:04:56.905Z,26.01
2019-01-28T10:05:56.953Z,26.08
2019-01-28T10:06:56.687Z,26.02
2019-01-28T10:07:56.654Z,26.01
2019-01-28T10:08:56.640Z,26.08
2019-01-28T10:09:56.674Z,26.02
2019-01-28T10:11:56.658Z,26.11
2019-01-28T10:12:56.622Z,26.02
2019-01-28T10:13:56.896Z,26.08
2019-01-28T10:14:56.885Z,26.01
2019-01-28T10:15:56.843Z,26.09
2019-01-28T10:16:56.585Z,26.02
2019-01-28T10:17:56.618Z,26.09
2019-01-28T10:18:56.840Z,26.04
2019-01-28T10:19:56.813Z,26.04
2019-01-28T10:20:56.566Z,26.01
2019-01-28T10:21:56.556Z,26.05
2019-01-28T10:22:56.544Z,26.05
2019-01-28T10:23:56.786Z,25.99
2019-01-28T10:24:56.572Z,26.05
2019-01-28T10:25:57.823Z,26.02
2019-01-28T10:26:56.752Z,26.01
2019-01-28T10:27:56.754Z,26.01
2019-01-28T10:28:56.787Z,25.99
2019-01-28T10:29:56.768Z,26.01
2019-01-28T10:30:56.768Z,25.99
2019-01-28T10:31:56.747Z,25.99
2019-01-28T10:32:56.527Z,26.01
2019-01-28T10:33:56.521Z,25.99
2019-01-28T10:34:56.726Z,25.98
2019-01-28T10:35:56.709Z,25.97
2019-01-28T10:36:56.488Z,25.97
2019-01-28T10:37:56.445Z,25.98
2019-01-28T10:38:56.476Z,25.97
2019-01-28T10:39:56.428Z,25.98
2019-01-28T10:40:56.419Z,25.98
2019-01-28T10:41:56.687Z,25.98
2019-01-28T10:42:56.702Z,26.02
2019-01-28T10:43:56.406Z,25.97
2019-01-28T10:44:56.424Z,25.97
2019-01-28T10:45:56.644Z,25.98
2019-01-28T10:46:56.659Z,25.93
2019-01-28T10:48:00.717Z,25.97
2019-01-28T10:48:56.403Z,25.91
2019-01-28T10:49:56.361Z,25.93
2019-01-28T10:50:56.354Z,25.97
2019-01-28T10:51:58.127Z,25.91
2019-01-28T10:52:56.418Z,25.98
2019-01-28T10:53:56.372Z,25.97
2019-01-28T10:54:56.590Z,25.97
2019-01-28T10:55:56.353Z,25.97
2019-01-28T10:56:56.550Z,25.97
2019-01-28T10:57:56.550Z,25.93
2019-01-28T10:58:56.593Z,25.98
2019-01-28T10:59:56.591Z,25.97
2019-01-28T11:00:56.585Z,25.97
2019-01-28T11:01:56.278Z,25.98
2019-01-28T11:02:56.513Z,25.93
2019-01-28T11:03:56.255Z,25.97
2019-01-28T11:04:56.515Z,25.98
2019-01-28T11:05:56.488Z,25.98
2019-01-28T11:06:56.535Z,25.94
2019-01-28T11:07:56.505Z,25.94
2019-01-28T11:08:56.502Z,25.94
2019-01-28T11:09:56.499Z,25.97
2019-01-28T11:10:56.317Z,25.94
2019-01-28T11:11:56.321Z,25.98
2019-01-28T11:12:56.302Z,25.91
2019-01-28T11:13:56.269Z,25.94
2019-01-28T11:14:56.262Z,25.93
2019-01-28T11:15:56.558Z,25.94
2019-01-28T11:16:56.464Z,25.90
2019-01-28T11:17:56.537Z,25.93
2019-01-28T11:19:56.423Z,25.94
2019-01-28T11:20:56.286Z,25.97
2019-01-28T11:21:56.167Z,25.93
2019-01-28T11:22:56.421Z,25.97
2019-01-28T11:23:56.413Z,26.04
2019-01-28T11:24:56.414Z,25.94
2019-01-28T11:25:56.117Z,26.01
2019-01-28T11:26:56.151Z,25.89
2019-01-28T11:27:56.381Z,25.97
2019-01-28T11:28:56.139Z,25.94
2019-01-28T11:29:56.355Z,25.94
2019-01-28T11:30:56.122Z,25.94
2019-01-28T11:31:56.084Z,25.93
2019-01-28T11:32:56.362Z,25.99
2019-01-28T11:33:56.162Z,25.98
2019-01-28T11:34:56.190Z,26.01
2019-01-28T11:36:04.454Z,25.98
2019-01-28T11:36:56.028Z,25.93
2019-01-28T11:37:56.275Z,25.94
2019-01-28T11:38:56.424Z,25.93
2019-01-28T11:39:56.143Z,25.91
2019-01-28T11:40:56.102Z,25.97
2019-01-28T11:41:56.151Z,25.94
2019-01-28T11:42:56.282Z,25.87
2019-01-28T11:43:56.064Z,25.84
2019-01-28T11:45:56.260Z,25.91
2019-01-28T11:46:56.341Z,25.80
2019-01-28T11:47:55.994Z,25.87
2019-01-28T11:48:56.039Z,25.87
2019-01-28T11:49:55.972Z,25.84
2019-01-28T11:50:56.413Z,25.86
2019-01-28T11:51:55.961Z,25.87
2019-01-28T11:52:56.203Z,25.83
2019-01-28T11:53:56.180Z,25.82
2019-01-28T11:54:56.293Z,25.84
2019-01-28T11:55:55.935Z,25.86
2019-01-28T11:56:55.923Z,25.80
2019-01-28T11:57:56.311Z,25.77
2019-01-28T11:58:55.923Z,25.80
2019-01-28T11:59:55.872Z,25.80
2019-01-28T12:00:56.268Z,25.75
2019-01-28T12:01:56.246Z,25.75
2019-01-28T12:02:55.848Z,25.80
2019-01-28T12:03:56.104Z,25.79
2019-01-28T12:04:56.090Z,25.79
2019-01-28T12:05:55.833Z,25.68
2019-01-28T12:06:56.097Z,25.74
2019-01-28T12:07:56.073Z,25.69
2019-01-28T12:08:56.088Z,25.82
2019-01-28T12:09:55.840Z,25.74
2019-01-28T12:10:56.111Z,25.71
2019-01-28T12:11:56.110Z,25.69
2019-01-28T12:12:55.799Z,25.68
2019-01-28T12:13:55.812Z,25.69
2019-01-28T12:14:56.010Z,25.65
2019-01-28T12:15:55.771Z,25.68
2019-01-28T12:16:56.032Z,25.71
2019-01-28T12:17:55.760Z,25.65
2019-01-28T12:18:55.743Z,25.68
2019-01-28T12:19:55.740Z,25.71
2019-01-28T12:20:55.752Z,25.68
2019-01-28T12:21:56.017Z,25.75
2019-01-28T12:22:55.714Z,25.68
2019-01-28T12:23:55.748Z,25.72
2019-01-28T12:24:55.964Z,25.75
2019-01-28T12:25:55.726Z,25.75
2019-01-28T12:26:55.923Z,25.75
2019-01-28T12:27:55.678Z,25.75
2019-01-28T12:28:55.905Z,25.69
2019-01-28T12:29:56.044Z,25.71
2019-01-28T12:30:55.653Z,25.64
2019-01-28T12:31:56.122Z,25.68
2019-01-28T12:32:55.674Z,25.65
2019-01-28T12:33:56.041Z,25.62
2019-01-28T12:34:56.003Z,25.69
2019-01-28T12:35:55.654Z,25.71
2019-01-28T12:36:55.617Z,25.64
2019-01-28T12:37:55.852Z,25.67
2019-01-28T12:38:55.599Z,25.72
2019-01-28T12:39:55.874Z,25.67
2019-01-28T12:40:55.884Z,25.68
2019-01-28T12:41:55.614Z,25.72
2019-01-28T12:42:55.802Z,25.69
2019-01-28T12:43:55.597Z,25.61
2019-01-28T12:44:55.827Z,25.71
2019-01-28T12:45:55.598Z,25.67
2019-01-28T12:46:55.555Z,25.67
2019-01-28T12:47:55.527Z,25.61
2019-01-28T12:48:55.838Z,25.62
2019-01-28T12:49:55.821Z,25.67
2019-01-28T12:50:55.813Z,25.68
2019-01-28T12:51:55.524Z,25.67
2019-01-28T12:52:55.502Z,25.69
2019-01-28T12:53:55.786Z,25.67
2019-01-28T12:54:55.525Z,25.65
2019-01-28T12:55:55.485Z,25.62
2019-01-28T12:56:55.517Z,25.59
2019-01-28T12:57:55.706Z,25.64
2019-01-28T12:58:55.726Z,25.52
2019-01-28T12:59:55.729Z,25.62
2019-01-28T13:00:55.543Z,25.57
2019-01-28T13:01:55.441Z,25.61